Time;durP1;ratioP1;P1;durP2;ratioP2;P2;SDS_P1;SDS_P2;PMS_P1;PMS_P2;Temp;Humidity;BMP_temperature;BMP_pressure;BME280_temperature;BME280_humidity;BME280_pressure;Samples;Min_cycle;Max_cycle;Signal;HPM_P1;HPM_P2
2022/04/17 00:01:58;;;;;;;14.65;9.07;;;;;;;7.84;47.07;102922.94;5011795;28;20037;-55
2022/04/17 00:04:23;;;;;;;16.73;8.82;;;;;;;7.84;46.71;102920.31;5013148;28;20042;-54
2022/04/17 00:06:48;;;;;;;14.90;8.55;;;;;;;7.78;46.54;102923.31;5012943;28;20420;-53
2022/04/17 00:09:14;;;;;;;15.38;8.95;;;;;;;7.69;46.88;102915.97;5010860;28;20029;-55
2022/04/17 00:11:41;;;;;;;14.15;8.60;;;;;;;7.72;46.44;102921.03;5012192;28;20358;-55
2022/04/17 00:14:07;;;;;;;14.70;9.32;;;;;;;7.74;46.92;102916.53;5012960;28;20397;-54
2022/04/17 00:16:32;;;;;;;13.25;8.60;;;;;;;7.70;46.17;102912.38;5011588;28;20034;-55
2022/04/17 00:18:58;;;;;;;12.40;8.65;;;;;;;7.66;46.65;102917.81;5012065;28;20042;-54
2022/04/17 00:21:23;;;;;;;15.63;9.15;;;;;;;7.71;48.02;102916.72;5012083;28;20025;-52
2022/04/17 00:23:49;;;;;;;16.95;8.65;;;;;;;7.67;46.16;102922.19;5012345;28;20034;-54
2022/04/17 00:26:14;;;;;;;14.40;8.45;;;;;;;7.74;46.76;102911.25;5012501;28;20026;-54
2022/04/17 00:28:39;;;;;;;12.95;8.30;;;;;;;7.70;47.20;102909.72;5011848;28;20045;-54
2022/04/17 00:31:05;;;;;;;14.25;8.43;;;;;;;7.70;46.32;102921.13;5011637;28;20381;-52
2022/04/17 00:33:31;;;;;;;12.48;8.27;;;;;;;7.66;48.21;102919.63;5023521;28;20044;-53
2022/04/17 00:35:57;;;;;;;15.30;8.43;;;;;;;7.60;46.81;102917.34;5013070;28;20439;-55
2022/04/17 00:38:22;;;;;;;17.25;9.02;;;;;;;7.54;47.47;102913.25;5012650;28;20030;-54
2022/04/17 00:40:47;;;;;;;13.45;8.80;;;;;;;7.51;46.88;102921.38;5011812;28;20061;-53
2022/04/17 00:43:34;;;;;;;13.90;8.73;;;;;;;7.61;47.62;102921.69;5012635;28;20033;-54
2022/04/17 00:46:00;;;;;;;14.57;9.00;;;;;;;7.54;48.03;102915.91;5000323;28;20029;-54
2022/04/17 00:48:26;;;;;;;13.85;9.23;;;;;;;7.51;48.92;102910.81;5024440;28;20059;-54
2022/04/17 00:50:54;;;;;;;13.88;8.82;;;;;;;7.43;48.55;102907.75;5011311;28;20400;-55
2022/04/17 00:53:25;;;;;;;14.88;9.18;;;;;;;7.27;49.08;102892.84;5013370;28;20033;-53
2022/04/17 00:55:51;;;;;;;15.73;9.00;;;;;;;7.24;49.39;102909.69;5016833;28;20026;-54
2022/04/17 00:58:17;;;;;;;14.27;8.75;;;;;;;7.22;49.27;102916.00;5012921;28;20699;-51
2022/04/17 01:00:43;;;;;;;14.18;8.88;;;;;;;7.21;48.77;102912.50;5011083;28;20029;-51
2022/04/17 01:03:12;;;;;;;14.00;8.88;;;;;;;7.23;50.04;102908.00;5012391;28;20391;-52
2022/04/17 01:05:41;;;;;;;13.88;8.98;;;;;;;7.12;50.09;102911.22;5011635;28;20038;-53
2022/04/17 01:08:08;;;;;;;16.10;8.98;;;;;;;7.04;49.57;102908.19;5011570;28;20038;-53
2022/04/17 01:10:34;;;;;;;13.45;8.73;;;;;;;7.01;48.64;102903.09;5010778;28;20030;-53
2022/04/17 01:13:02;;;;;;;15.80;8.43;;;;;;;7.02;50.27;102899.53;5011481;28;20060;-51
2022/04/17 01:15:28;;;;;;;14.73;8.98;;;;;;;6.90;49.76;102900.22;5007593;28;20491;-54
2022/04/17 01:17:54;;;;;;;14.00;8.35;;;;;;;6.91;49.33;102907.19;5010231;28;20065;-55
2022/04/17 01:20:21;;;;;;;13.38;8.52;;;;;;;6.89;49.74;102906.41;5010773;28;20052;-54
2022/04/17 01:22:48;;;;;;;13.20;8.30;;;;;;;6.86;49.76;102905.66;5011640;28;20152;-53
2022/04/17 01:27:57;;;;;;;12.20;8.27;;;;;;;6.79;49.59;102909.56;4998974;28;20096;-55
2022/04/17 01:30:22;;;;;;;13.65;8.30;;;;;;;6.81;49.71;102915.59;5014583;28;20034;-52
2022/04/17 01:32:48;;;;;;;13.80;8.00;;;;;;;6.73;49.40;102909.91;5017859;28;20045;-54
2022/04/17 01:35:13;;;;;;;13.05;8.00;;;;;;;6.70;49.40;102915.34;5015526;28;20522;-51
2022/04/17 01:37:38;;;;;;;13.48;8.07;;;;;;;6.68;49.67;102911.94;5015518;28;20048;-55
2022/04/17 01:40:04;;;;;;;12.45;7.93;;;;;;;6.67;50.63;102915.53;5014633;28;20038;-54
2022/04/17 01:42:29;;;;;;;13.27;7.55;;;;;;;6.70;50.78;102915.34;5015522;28;20021;-54
2022/04/17 01:44:56;;;;;;;14.43;8.07;;;;;;;6.61;50.45;102918.50;5015280;28;20045;-54
2022/04/17 01:47:21;;;;;;;12.55;7.70;;;;;;;6.55;50.24;102915.25;5015815;28;20030;-54
2022/04/17 01:49:47;;;;;;;13.73;7.43;;;;;;;6.51;49.73;102911.06;5012635;28;20040;-50
2022/04/17 01:52:12;;;;;;;13.50;7.53;;;;;;;6.48;49.97;102910.38;5014239;28;20508;-52
2022/04/17 01:54:38;;;;;;;12.63;7.70;;;;;;;6.42;50.14;102906.31;5015145;28;20029;-53
2022/04/17 01:57:03;;;;;;;12.98;7.53;;;;;;;6.36;49.87;102907.47;5015163;28;20412;-53
2022/04/17 01:59:29;;;;;;;12.45;7.80;;;;;;;6.38;50.00;102907.41;5015370;28;20038;-52
2022/04/17 02:01:54;;;;;;;12.70;7.32;;;;;;;6.37;50.38;102908.34;5013735;28;20038;-50
2022/04/17 02:04:20;;;;;;;9.55;7.00;;;;;;;6.32;50.96;102898.91;5015006;28;20133;-53
2022/04/17 02:06:47;;;;;;;11.40;7.28;;;;;;;6.27;50.23;102898.28;5014027;28;20026;-51
2022/04/17 02:09:14;;;;;;;12.98;7.60;;;;;;;6.24;51.50;102898.47;5014498;28;20037;-53
2022/04/17 02:11:41;;;;;;;11.80;7.28;;;;;;;6.21;51.08;102903.88;5013651;28;20487;-54
2022/04/17 02:14:08;;;;;;;14.35;7.82;;;;;;;6.19;51.17;102906.63;5003867;28;20050;-55
2022/04/17 02:16:34;;;;;;;12.68;7.20;;;;;;;6.18;50.73;102901.44;5012973;28;20041;-54
2022/04/17 02:19:00;;;;;;;11.65;7.13;;;;;;;6.14;50.11;102898.09;5020574;28;20047;-54
2022/04/17 02:21:26;;;;;;;12.15;7.03;;;;;;;6.18;51.36;102898.78;5013474;28;20049;-55
2022/04/17 02:23:52;;;;;;;11.70;7.30;;;;;;;6.04;50.74;102891.63;5013584;28;20408;-54
2022/04/17 02:26:17;;;;;;;11.02;7.40;;;;;;;6.11;51.35;102892.16;5013107;28;20041;-53
2022/04/17 02:28:44;;;;;;;11.52;7.38;;;;;;;5.99;51.15;102898.88;5013855;28;20943;-52
2022/04/17 02:31:10;;;;;;;11.00;7.13;;;;;;;5.79;51.43;102888.44;5014333;28;20099;-52
2022/04/17 02:33:37;;;;;;;12.18;7.53;;;;;;;5.85;52.25;102886.41;5018011;28;20500;-53
2022/04/17 02:36:04;;;;;;;12.00;7.20;;;;;;;5.87;52.25;102892.47;5014029;28;20563;-55
2022/04/17 02:38:29;;;;;;;12.90;7.50;;;;;;;5.81;52.91;102885.72;5012289;28;20042;-56
2022/04/17 02:40:55;;;;;;;11.65;7.15;;;;;;;5.83;52.82;102888.28;5026911;28;20038;-53
2022/04/17 02:43:20;;;;;;;12.20;7.18;;;;;;;5.77;52.54;102885.03;5014122;28;20041;-53
2022/04/17 02:45:46;;;;;;;12.45;7.70;;;;;;;5.72;52.18;102887.06;5014261;28;20050;-54
2022/04/17 02:48:11;;;;;;;10.80;7.20;;;;;;;5.71;52.71;102885.34;5013833;28;20502;-54
2022/04/17 02:50:36;;;;;;;13.63;7.60;;;;;;;5.62;52.31;102880.53;5013980;28;20468;-54
2022/04/17 02:53:02;;;;;;;12.05;7.30;;;;;;;5.63;52.38;102887.53;5012662;28;20033;-50
2022/04/17 02:55:27;;;;;;;10.85;7.20;;;;;;;5.54;53.87;102882.72;5014818;28;20037;-53
2022/04/17 02:57:54;;;;;;;13.10;7.55;;;;;;;5.54;53.67;102885.34;5014782;28;20032;-53
2022/04/17 03:00:20;;;;;;;13.10;7.25;;;;;;;5.54;53.52;102882.72;5013864;28;20029;-53
2022/04/17 03:05:36;;;;;;;11.77;7.40;;;;;;;5.45;54.15;102879.66;5013440;28;20045;-53
2022/04/17 03:08:10;;;;;;;12.23;7.10;;;;;;;5.42;54.32;102874.53;5016585;28;20042;-53
2022/04/17 03:10:40;;;;;;;13.25;7.82;;;;;;;5.33;54.36;102859.22;5012293;28;20041;-54
2022/04/17 03:13:06;;;;;;;13.20;7.80;;;;;;;5.30;55.22;102875.13;5012066;28;20046;-55
2022/04/17 03:15:33;;;;;;;13.88;7.80;;;;;;;5.28;55.20;102866.47;5014085;28;20026;-52
2022/04/17 03:17:59;;;;;;;12.77;7.45;;;;;;;5.31;53.80;102866.31;5013304;28;20054;-53
2022/04/17 03:20:27;;;;;;;13.48;7.25;;;;;;;5.34;53.15;102861.75;5012091;28;20038;-51
2022/04/17 03:22:53;;;;;;;19.02;8.07;;;;;;;5.24;53.77;102865.78;5012538;28;20037;-54
2022/04/17 03:25:18;;;;;;;12.82;7.72;;;;;;;5.25;53.84;102863.06;5013659;28;20037;-54
2022/04/17 03:27:46;;;;;;;13.23;7.65;;;;;;;5.19;53.84;102859.91;5012120;28;20101;-52
2022/04/17 03:30:13;;;;;;;14.15;7.88;;;;;;;5.13;53.95;102861.03;5012327;28;20484;-55
2022/04/17 03:32:38;;;;;;;13.63;7.93;;;;;;;5.06;55.15;102862.25;5012349;28;20041;-53
2022/04/17 03:35:04;;;;;;;13.90;8.32;;;;;;;5.01;55.04;102853.75;5012578;28;20341;-53
2022/04/17 03:37:29;;;;;;;13.65;7.88;;;;;;;4.94;55.87;102856.66;5013326;28;20100;-55
2022/04/17 03:39:55;;;;;;;13.32;7.97;;;;;;;4.93;54.94;102856.78;5012592;28;20034;-50
2022/04/17 03:42:21;;;;;;;11.88;7.75;;;;;;;4.91;54.64;102850.72;5011188;28;20058;-55
2022/04/17 03:44:47;;;;;;;13.88;7.97;;;;;;;4.76;55.11;102849.69;5005272;28;20061;-54
2022/04/17 03:47:12;;;;;;;16.02;8.25;;;;;;;4.82;54.81;102844.13;5006107;28;20465;-53
2022/04/17 03:49:38;;;;;;;11.75;7.63;;;;;;;4.83;55.42;102851.06;5009211;28;20030;-54
2022/04/17 03:52:04;;;;;;;13.82;7.22;;;;;;;4.79;55.63;102854.81;5011304;28;20033;-53
2022/04/17 03:54:30;;;;;;;12.90;7.75;;;;;;;4.79;54.91;102850.38;5013252;28;20030;-54
2022/04/17 03:56:55;;;;;;;12.88;8.00;;;;;;;4.78;54.95;102847.84;5013122;28;20034;-55
2022/04/17 03:59:21;;;;;;;13.55;7.90;;;;;;;4.73;55.10;102844.59;5012307;28;20079;-53
2022/04/17 04:01:46;;;;;;;18.83;8.15;;;;;;;4.78;55.93;102850.47;5005608;28;20056;-53
2022/04/17 04:04:12;;;;;;;16.77;7.50;;;;;;;4.75;55.29;102847.97;5011520;28;20396;-53
2022/04/17 04:06:37;;;;;;;15.15;7.93;;;;;;;4.62;55.79;102847.69;5011464;28;20033;-53
2022/04/17 04:09:03;;;;;;;11.32;7.50;;;;;;;4.64;55.17;102841.44;5011209;28;20384;-52
2022/04/17 04:11:28;;;;;;;12.15;7.25;;;;;;;4.52;56.38;102836.78;5010654;28;20042;-55
2022/04/17 04:13:54;;;;;;;12.65;7.40;;;;;;;4.42;55.77;102841.59;5016716;28;20512;-54
2022/04/17 04:16:19;;;;;;;12.38;7.43;;;;;;;4.39;56.69;102847.84;5014312;28;20069;-55
2022/04/17 04:18:45;;;;;;;10.98;7.40;;;;;;;4.35;57.33;102838.44;5011624;28;20054;-54
2022/04/17 04:21:10;;;;;;;12.70;7.63;;;;;;;4.43;57.92;102830.16;5009777;28;20033;-54
2022/04/17 04:23:35;;;;;;;13.07;7.60;;;;;;;4.43;57.74;102833.66;5012066;28;20076;-54
2022/04/17 04:26:01;;;;;;;13.32;7.40;;;;;;;4.46;57.13;102821.28;5012515;28;20056;-54
2022/04/17 04:28:33;;;;;;;12.67;7.17;;;;;;;4.44;57.19;102824.00;5026945;28;20477;-55
2022/04/17 04:30:58;;;;;;;11.87;7.63;;;;;;;4.46;56.93;102824.78;5009661;28;20041;-52
2022/04/17 04:33:24;;;;;;;14.55;7.82;;;;;;;4.39;56.64;102821.59;5011576;28;20030;-53
2022/04/17 04:35:49;;;;;;;12.20;7.35;;;;;;;4.40;56.54;102827.69;5011935;28;20033;-52
2022/04/17 04:38:14;;;;;;;14.13;7.10;;;;;;;4.33;56.04;102828.91;5007352;28;20373;-52
2022/04/17 04:40:40;;;;;;;16.57;7.60;;;;;;;4.37;56.49;102828.69;5022797;28;20045;-54
2022/04/17 04:43:05;;;;;;;12.63;7.30;;;;;;;4.34;56.67;102828.81;5014904;28;20041;-53
2022/04/17 04:48:15;;;;;;;11.47;7.30;;;;;;;4.36;57.24;102821.75;5011043;28;20108;-54
2022/04/17 04:50:41;;;;;;;10.85;7.47;;;;;;;4.29;57.07;102821.16;5011701;28;20037;-50
2022/04/17 04:53:06;;;;;;;14.53;7.63;;;;;;;4.28;58.00;102818.59;5010812;28;20029;-52
2022/04/17 04:55:31;;;;;;;12.20;7.90;;;;;;;4.17;57.45;102816.47;5005627;28;20101;-50
2022/04/17 04:57:57;;;;;;;11.43;7.40;;;;;;;4.19;57.94;102821.66;5002522;28;20038;-54
2022/04/17 05:00:23;;;;;;;11.73;7.43;;;;;;;4.14;57.72;102817.47;5002769;28;20037;-55
2022/04/17 05:02:48;;;;;;;15.00;8.47;;;;;;;4.17;58.11;102821.72;5005243;28;20030;-55
2022/04/17 05:05:14;;;;;;;13.00;7.77;;;;;;;4.08;58.96;102817.75;5003701;28;20129;-52
2022/04/17 05:07:39;;;;;;;13.73;7.83;;;;;;;4.08;59.03;102820.38;5004343;28;20121;-53
2022/04/17 05:10:06;;;;;;;12.53;8.30;;;;;;;4.02;58.65;102823.28;5006354;28;20022;-57
2022/04/17 05:12:33;;;;;;;13.63;7.83;;;;;;;4.01;58.38;102826.84;5002564;28;20057;-55
2022/04/17 05:15:00;;;;;;;13.10;8.27;;;;;;;3.97;59.56;102822.63;5013349;28;20044;-53
2022/04/17 05:17:25;;;;;;;12.40;7.90;;;;;;;4.04;59.10;102831.94;5005979;28;20053;-56
2022/04/17 05:19:50;;;;;;;16.30;8.00;;;;;;;4.13;59.47;102828.91;5011204;28;20396;-55
2022/04/17 05:22:16;;;;;;;13.40;8.00;;;;;;;4.21;59.10;102822.44;5010711;28;20060;-54
2022/04/17 05:24:43;;;;;;;12.17;7.60;;;;;;;4.25;59.14;102824.00;5013383;28;20113;-55
2022/04/17 05:27:08;;;;;;;13.87;8.53;;;;;;;4.26;59.20;102830.97;5011179;28;20065;-53
2022/04/17 05:29:34;;;;;;;13.43;7.87;;;;;;;4.27;58.22;102833.53;5013008;28;20022;-53
2022/04/17 05:32:00;;;;;;;17.37;8.40;;;;;;;4.29;58.48;102822.94;5015201;28;20049;-54
2022/04/17 05:34:26;;;;;;;12.93;7.90;;;;;;;4.29;59.04;102830.81;5013765;28;20680;-54
2022/04/17 05:36:51;;;;;;;12.53;8.17;;;;;;;4.38;58.56;102830.41;5010166;28;20030;-54
2022/04/17 05:39:16;;;;;;;15.60;7.90;;;;;;;4.42;58.37;102831.09;5011141;28;20332;-57
2022/04/17 05:41:42;;;;;;;12.10;7.60;;;;;;;4.51;57.87;102829.81;5011371;28;20038;-55
2022/04/17 05:44:08;;;;;;;13.77;8.50;;;;;;;4.52;57.19;102831.50;5011298;28;20026;-52
2022/04/17 05:46:37;;;;;;;13.53;8.70;;;;;;;4.51;58.01;102829.81;5011831;28;20030;-55
2022/04/17 05:49:04;;;;;;;14.63;8.60;;;;;;;4.59;57.97;102830.28;5012164;28;20026;-56
2022/04/17 05:51:30;;;;;;;15.68;8.68;;;;;;;4.65;57.80;102827.41;5011410;28;20077;-54
2022/04/17 05:53:55;;;;;;;13.43;8.38;;;;;;;4.71;57.33;102827.13;5010509;28;20034;-55
2022/04/17 05:56:21;;;;;;;13.40;8.10;;;;;;;4.73;57.49;102826.19;5011332;28;20030;-55
2022/04/17 05:58:46;;;;;;;13.83;8.47;;;;;;;4.80;57.61;102828.41;5008444;28;20033;-54
2022/04/17 06:01:11;;;;;;;15.23;7.97;;;;;;;4.90;57.58;102826.22;5004299;28;20031;-55
2022/04/17 06:03:37;;;;;;;13.60;7.78;;;;;;;5.01;57.61;102832.72;5004536;28;20030;-55
2022/04/17 06:06:02;;;;;;;11.30;7.72;;;;;;;5.07;56.92;102827.16;5004406;28;20117;-53
2022/04/17 06:08:29;;;;;;;12.55;7.63;;;;;;;5.12;57.08;102825.16;5003265;28;20054;-58
2022/04/17 06:10:55;;;;;;;12.25;7.43;;;;;;;5.18;57.10;102827.47;5003563;28;20042;-58
2022/04/17 06:13:20;;;;;;;15.40;7.32;;;;;;;5.26;56.97;102819.19;5012049;28;20030;-57
2022/04/17 06:15:45;;;;;;;12.88;7.45;;;;;;;5.38;56.53;102828.25;5013502;28;20026;-57
2022/04/17 06:18:11;;;;;;;14.65;7.30;;;;;;;5.44;56.60;102825.31;5016255;28;20073;-57
2022/04/17 06:20:36;;;;;;;13.85;7.25;;;;;;;5.58;56.60;102821.13;5014564;28;20044;-57
2022/04/17 06:23:01;;;;;;;12.88;7.28;;;;;;;5.67;55.61;102825.88;5016169;28;20072;-58
2022/04/17 06:25:27;;;;;;;10.73;6.95;;;;;;;5.77;55.57;102827.13;5016490;28;20050;-57
2022/04/17 06:27:52;;;;;;;11.93;6.43;;;;;;;5.86;55.42;102819.66;5015338;28;20045;-58
2022/04/17 06:30:21;;;;;;;11.55;6.40;;;;;;;5.96;55.75;102815.59;5012768;28;20113;-57
2022/04/17 06:32:47;;;;;;;11.32;6.53;;;;;;;6.03;54.84;102817.00;5013711;28;20049;-57
2022/04/17 06:35:13;;;;;;;10.18;6.32;;;;;;;6.12;54.17;102809.56;5013516;28;20030;-56
2022/04/17 06:37:45;;;;;;;15.55;6.30;;;;;;;6.23;53.85;102817.72;5013426;28;20457;-54
2022/04/17 06:40:11;;;;;;;10.02;6.43;;;;;;;6.30;54.20;102813.81;5014069;28;20045;-53
2022/04/17 06:42:36;;;;;;;8.35;6.00;;;;;;;6.42;53.87;102816.72;5010086;28;20038;-53
2022/04/17 06:45:01;;;;;;;8.75;5.90;;;;;;;6.52;53.93;102822.31;5009838;28;20034;-52
2022/04/17 06:47:30;;;;;;;10.68;5.72;;;;;;;6.59;53.45;102819.25;5014599;28;20021;-55
2022/04/17 06:49:56;;;;;;;10.13;5.82;;;;;;;6.67;53.72;102815.34;5013185;28;20370;-51
2022/04/17 06:52:21;;;;;;;10.18;5.60;;;;;;;6.77;53.29;102816.53;5013951;28;20121;-55
2022/04/17 06:54:46;;;;;;;7.80;5.15;;;;;;;6.86;52.33;102813.34;5013710;28;20053;-55
2022/04/17 06:57:11;;;;;;;10.23;5.50;;;;;;;6.96;51.74;102810.19;5014760;28;20385;-53
2022/04/17 06:59:37;;;;;;;7.15;4.95;;;;;;;7.07;51.60;102809.56;5013043;28;20088;-53
2022/04/17 07:02:02;;;;;;;6.80;5.00;;;;;;;7.22;51.30;102806.03;5014683;28;20504;-53
2022/04/17 07:04:28;;;;;;;9.55;5.47;;;;;;;7.32;50.43;102802.81;5013354;28;20026;-54
2022/04/17 07:06:54;;;;;;;7.60;5.15;;;;;;;7.39;50.62;102806.78;5014171;28;20117;-53
2022/04/17 07:09:19;;;;;;;9.00;5.40;;;;;;;7.49;51.62;102807.09;5015859;28;20045;-54
2022/04/17 07:11:45;;;;;;;8.43;5.00;;;;;;;7.59;50.90;102807.41;5002819;28;20080;-54
2022/04/17 07:14:14;;;;;;;8.52;4.90;;;;;;;7.70;50.50;102798.81;5006645;28;20034;-54
2022/04/17 07:16:40;;;;;;;7.05;5.13;;;;;;;7.81;48.65;102809.56;5005028;28;20029;-54
2022/04/17 07:19:05;;;;;;;8.75;5.00;;;;;;;7.89;49.37;102799.38;5003654;28;20115;-55
2022/04/17 07:21:32;;;;;;;6.50;4.95;;;;;;;8.01;49.46;102791.63;5002837;28;20507;-54
2022/04/17 07:23:57;;;;;;;8.32;4.90;;;;;;;8.12;48.86;102791.81;5005184;28;20084;-54
2022/04/17 07:26:23;;;;;;;7.40;4.70;;;;;;;8.21;48.93;102783.28;5001386;28;20461;-54
2022/04/17 07:28:49;;;;;;;9.32;5.82;;;;;;;8.32;48.67;102785.25;4998896;28;20034;-55
2022/04/17 07:31:19;;;;;;;8.00;4.90;;;;;;;8.38;47.99;102789.28;4996650;28;20156;-55
2022/04/17 07:33:45;;;;;;;6.40;4.70;;;;;;;8.43;47.95;102779.25;5017941;28;20484;-54
2022/04/17 07:36:10;;;;;;;7.72;4.75;;;;;;;8.51;47.81;102775.25;5012986;28;20025;-55
2022/04/17 07:38:36;;;;;;;8.10;5.10;;;;;;;8.54;46.92;102778.59;5006865;28;20032;-54
2022/04/17 07:41:02;;;;;;;6.90;4.90;;;;;;;8.59;46.38;102776.50;5009988;28;20034;-55
2022/04/17 07:43:28;;;;;;;6.03;4.60;;;;;;;8.69;47.05;102775.91;5006318;28;20028;-53
2022/04/17 07:45:53;;;;;;;7.50;4.75;;;;;;;8.74;46.75;102777.28;5008391;28;20712;-55
2022/04/17 07:48:19;;;;;;;6.57;4.53;;;;;;;8.86;46.53;102764.19;5002671;28;20037;-53
2022/04/17 07:50:44;;;;;;;8.88;4.68;;;;;;;8.98;45.60;102767.84;5002678;28;20526;-53
2022/04/17 07:53:09;;;;;;;7.60;4.80;;;;;;;9.05;45.70;102766.47;5002362;28;20215;-52
2022/04/17 07:55:34;;;;;;;7.20;4.60;;;;;;;9.16;45.76;102765.72;5004336;28;20029;-54
2022/04/17 08:00:57;;;;;;;8.95;4.70;;;;;;;9.31;45.06;102771.75;5018139;28;20695;-54
2022/04/17 08:03:35;;;;;;;7.65;4.60;;;;;;;9.38;44.72;102766.91;5007549;28;20026;-54
2022/04/17 08:06:01;;;;;;;8.18;4.88;;;;;;;9.44;45.31;102766.47;5007525;28;20437;-54
2022/04/17 08:08:26;;;;;;;8.93;4.70;;;;;;;9.59;44.83;102769.00;5006503;28;20036;-53
2022/04/17 08:10:52;;;;;;;7.03;4.50;;;;;;;9.66;44.20;102763.19;5000334;28;20026;-54
2022/04/17 08:13:18;;;;;;;6.05;4.55;;;;;;;9.75;45.08;102774.94;5010793;28;20397;-54
2022/04/17 08:15:43;;;;;;;9.35;4.90;;;;;;;9.81;44.48;102763.91;5005768;28;20637;-57
2022/04/17 08:18:09;;;;;;;6.07;4.65;;;;;;;9.87;44.41;102767.06;5004727;28;20054;-55
2022/04/17 08:20:34;;;;;;;8.20;4.88;;;;;;;9.92;43.43;102767.59;5005249;28;20108;-54
2022/04/17 08:23:00;;;;;;;7.95;4.68;;;;;;;9.98;43.64;102763.66;4999894;28;20046;-55
2022/04/17 08:25:26;;;;;;;10.23;4.70;;;;;;;10.06;43.73;102759.50;5005730;28;20116;-53
2022/04/17 08:27:55;;;;;;;6.40;4.50;;;;;;;10.18;43.68;102759.56;5005918;28;20052;-52
2022/04/17 08:30:22;;;;;;;7.75;4.90;;;;;;;10.27;43.65;102764.19;5010543;28;20504;-58
2022/04/17 08:32:47;;;;;;;6.15;4.30;;;;;;;10.36;43.75;102758.22;5003957;28;20037;-58
2022/04/17 08:35:13;;;;;;;6.70;4.32;;;;;;;10.44;42.35;102759.47;5005037;28;20034;-58
2022/04/17 08:37:38;;;;;;;6.65;4.57;;;;;;;10.49;41.96;102762.63;5010622;28;20038;-58
2022/04/17 08:40:04;;;;;;;5.75;4.15;;;;;;;10.55;41.80;102748.91;5011172;28;20520;-58
2022/04/17 08:42:31;;;;;;;4.97;4.28;;;;;;;10.63;42.40;102751.00;5001192;28;20400;-58
2022/04/17 08:44:57;;;;;;;5.93;4.20;;;;;;;10.73;40.84;102753.81;5002249;28;20473;-59
2022/04/17 08:47:22;;;;;;;4.75;4.22;;;;;;;10.78;41.72;102746.34;5006003;28;20084;-58
2022/04/17 08:49:50;;;;;;;8.98;4.18;;;;;;;10.87;41.64;102750.94;5010416;28;20057;-58
2022/04/17 08:52:16;;;;;;;5.47;4.20;;;;;;;10.95;40.82;102749.56;5010825;28;20029;-59
2022/04/17 08:54:43;;;;;;;6.60;4.30;;;;;;;11.06;41.29;102749.59;5001653;28;20029;-59
2022/04/17 08:57:09;;;;;;;5.35;4.03;;;;;;;11.13;40.71;102745.47;5009392;28;20026;-58
2022/04/17 08:59:34;;;;;;;5.38;3.78;;;;;;;11.19;39.46;102748.63;5011968;28;20061;-58
2022/04/17 09:02:10;;;;;;;6.97;4.32;;;;;;;11.30;40.68;102740.69;5008905;28;20061;-59
2022/04/17 09:04:35;;;;;;;6.63;4.40;;;;;;;11.40;41.16;102736.31;5005091;28;20034;-59
2022/04/17 09:07:01;;;;;;;6.15;4.50;;;;;;;11.50;40.43;102731.13;5004419;28;20030;-59
2022/04/17 09:09:26;;;;;;;5.55;4.00;;;;;;;11.51;39.79;102737.28;5008574;28;20032;-58
2022/04/17 09:11:55;;;;;;;7.03;3.92;;;;;;;11.59;39.10;102734.03;5009730;28;20029;-58
2022/04/17 09:14:20;;;;;;;6.60;4.38;;;;;;;11.64;40.92;102732.69;5002505;28;20400;-59
2022/04/17 09:16:51;;;;;;;6.85;4.25;;;;;;;11.73;40.32;102727.63;5000579;28;20039;-59
2022/04/17 09:19:18;;;;;;;6.72;4.10;;;;;;;11.78;40.86;102733.41;5006962;28;20049;-58
2022/04/17 09:21:43;;;;;;;6.22;4.55;;;;;;;11.85;40.04;102729.31;5009512;28;20514;-58
2022/04/17 09:24:17;;;;;;;5.50;4.25;;;;;;;11.93;40.20;102721.53;5010729;28;20035;-59
2022/04/17 09:26:50;;;;;;;6.78;4.10;;;;;;;11.96;39.56;102720.47;4999437;28;20041;-58
2022/04/17 09:29:27;;;;;;;7.30;4.07;;;;;;;12.11;39.04;102718.41;5003601;28;20408;-59
2022/04/17 09:32:03;;;;;;;8.05;4.50;;;;;;;12.19;39.57;102715.13;5007864;28;20504;-58
2022/04/17 09:34:50;;;;;;;6.30;4.00;;;;;;;12.29;39.12;102710.69;4998370;28;20026;-59
2022/04/17 09:37:21;;;;;;;5.22;4.03;;;;;;;12.30;37.31;102706.25;5011204;28;20435;-59
2022/04/17 09:39:48;;;;;;;6.90;4.00;;;;;;;12.37;37.83;102707.41;5008847;28;20034;-59
2022/04/17 09:42:21;;;;;;;5.88;4.05;;;;;;;12.48;37.82;102710.03;5007125;28;20034;-59
2022/04/17 09:44:47;;;;;;;;;;;;;;;12.57;40.11;102707.56;4999788;28;20038;-59
2022/04/17 09:47:20;;;;;;;6.78;4.20;;;;;;;12.65;38.96;102699.78;5009279;28;20044;-59
2022/04/17 09:50:03;;;;;;;7.07;4.20;;;;;;;12.67;39.72;102681.03;5012373;28;20034;-59
2022/04/17 09:52:31;;;;;;;8.05;4.53;;;;;;;12.71;38.52;102683.31;5020798;28;20080;-59
2022/04/17 09:54:58;;;;;;;5.90;4.50;;;;;;;12.80;39.33;102687.00;5013817;28;20026;-59
2022/04/17 09:57:34;;;;;;;7.38;4.50;;;;;;;12.83;38.45;102681.41;5009368;28;20476;-59
2022/04/17 10:00:14;;;;;;;7.15;4.40;;;;;;;12.91;39.03;102678.94;5009241;28;20061;-59
2022/04/17 10:02:42;;;;;;;7.85;4.10;;;;;;;13.00;38.04;102664.00;5015621;28;20045;-59
2022/04/17 10:05:10;;;;;;;6.78;4.40;;;;;;;13.11;36.90;102663.06;5016494;28;20473;-58
2022/04/17 10:07:41;;;;;;;6.78;4.32;;;;;;;13.13;37.86;102649.59;5001511;28;20427;-59
2022/04/17 10:10:07;;;;;;;5.50;4.00;;;;;;;13.16;37.57;102660.84;5010950;28;20480;-59
2022/04/17 10:12:34;;;;;;;5.68;3.90;;;;;;;13.27;37.70;102657.22;5007922;28;20087;-59
2022/04/17 10:15:04;;;;;;;7.55;4.30;;;;;;;13.27;35.75;102653.72;5006306;28;20030;-59
2022/04/17 10:17:30;;;;;;;5.55;4.07;;;;;;;13.30;36.71;102646.31;5009312;28;20038;-59
2022/04/17 10:20:01;;;;;;;6.38;3.97;;;;;;;13.30;36.49;102635.66;5013225;28;20065;-58
2022/04/17 10:22:32;;;;;;;7.40;4.20;;;;;;;13.47;37.13;102638.66;5020616;28;20096;-59
2022/04/17 10:24:58;;;;;;;5.57;3.95;;;;;;;13.59;36.16;102637.56;5005499;28;20041;-59
2022/04/17 10:27:28;;;;;;;4.43;3.78;;;;;;;13.66;35.81;102626.38;5012015;28;20041;-59
2022/04/17 10:30:01;;;;;;;5.43;3.65;;;;;;;13.81;35.29;102626.81;5012928;28;20061;-59
2022/04/17 10:32:32;;;;;;;5.68;3.88;;;;;;;13.88;35.68;102627.94;5011788;28;20026;-59
2022/04/17 10:35:29;;;;;;;6.85;3.78;;;;;;;13.91;35.79;102605.47;5014003;28;20032;-58
2022/04/17 10:38:17;;;;;;;4.45;3.33;;;;;;;13.95;34.03;102612.19;5014220;28;20057;-59
2022/04/17 10:40:51;;;;;;;5.03;3.35;;;;;;;14.11;33.30;102601.81;5009490;28;20030;-59
2022/04/17 10:43:16;;;;;;;4.25;3.08;;;;;;;14.22;33.79;102598.13;5009102;28;20030;-59
2022/04/17 10:46:10;;;;;;;3.83;3.13;;;;;;;14.29;34.17;102593.09;5005137;28;20044;-59
2022/04/17 10:48:54;;;;;;;4.28;3.17;;;;;;;14.46;33.33;102593.34;5002812;28;20024;-59
2022/04/17 10:51:34;;;;;;;5.82;3.17;;;;;;;14.50;32.86;102592.03;5021629;28;20397;-59
2022/04/17 10:54:14;;;;;;;5.55;3.45;;;;;;;14.65;33.86;102587.94;5014931;28;20044;-58
2022/04/17 10:56:43;;;;;;;3.15;2.85;;;;;;;14.71;32.89;102581.16;5013582;28;20457;-59
2022/04/17 10:59:19;;;;;;;5.75;3.00;;;;;;;14.78;31.96;102582.31;5012590;28;20037;-58
2022/04/17 11:01:44;;;;;;;5.45;3.08;;;;;;;14.88;30.91;102581.41;5007409;28;20022;-58
2022/04/17 11:04:19;;;;;;;6.03;3.05;;;;;;;14.87;31.47;102575.25;5005832;28;20596;-59
2022/04/17 11:06:45;;;;;;;3.75;2.80;;;;;;;15.06;32.10;102568.13;5010374;28;20080;-58
2022/04/17 11:09:20;;;;;;;4.50;2.78;;;;;;;15.15;29.82;102561.88;5008246;28;20029;-58
2022/04/17 11:11:46;;;;;;;4.40;2.83;;;;;;;15.30;29.74;102564.06;5029532;28;20026;-58
2022/04/17 11:14:20;;;;;;;3.90;2.60;;;;;;;15.41;29.74;102566.50;5007795;28;20041;-58
2022/04/17 11:16:49;;;;;;;3.10;2.80;;;;;;;15.49;29.38;102557.72;5023861;28;20045;-59
2022/04/17 11:19:17;;;;;;;3.55;2.80;;;;;;;15.54;30.37;102559.94;5009176;28;20049;-58
2022/04/17 11:21:46;;;;;;;4.63;2.83;;;;;;;15.48;29.24;102544.50;5021900;28;20079;-58
2022/04/17 11:24:11;;;;;;;4.82;2.97;;;;;;;15.55;29.43;102545.59;5011326;28;20065;-58
2022/04/17 11:26:58;;;;;;;4.53;2.85;;;;;;;15.59;30.62;102546.94;5002259;28;20046;-59
2022/04/17 11:29:43;;;;;;;5.43;2.70;;;;;;;15.61;29.87;102534.28;5017999;28;20048;-58
2022/04/17 11:32:32;;;;;;;4.43;3.05;;;;;;;15.62;30.29;102530.59;5007963;28;20041;-58
2022/04/17 11:35:02;;;;;;;4.75;2.80;;;;;;;15.69;29.60;102520.13;5015294;28;20081;-59
2022/04/17 11:37:30;;;;;;;3.80;3.30;;;;;;;15.81;29.67;102524.25;5013236;28;20080;-60
2022/04/17 11:39:58;;;;;;;5.43;3.17;;;;;;;15.92;30.20;102528.53;5010769;28;20435;-58